createdAt,value
2018-12-26T00:00:45.329Z,91.6
2018-12-26T00:01:57.360Z,91.4
2018-12-26T00:03:09.631Z,91.5
2018-12-26T00:04:21.933Z,92.5
2018-12-26T00:05:34.003Z,92
2018-12-26T00:06:46.327Z,91.5
2018-12-26T00:07:58.399Z,91.7
2018-12-26T00:09:10.517Z,92.1
2018-12-26T00:10:22.811Z,92.2
2018-12-26T00:11:34.986Z,91.5
2018-12-26T00:12:47.282Z,91.5
2018-12-26T00:13:59.479Z,91.2
2018-12-26T00:15:11.539Z,91.8
2018-12-26T00:16:23.680Z,91.2
2018-12-26T00:17:35.954Z,91.3
2018-12-26T00:18:48.220Z,91.8
2018-12-26T00:20:00.269Z,91.8
2018-12-26T00:21:12.459Z,91.9
2018-12-26T00:22:24.652Z,92.2
2018-12-26T00:23:36.850Z,92.1
2018-12-26T00:24:49.047Z,92.4
2018-12-26T00:26:01.434Z,92.2
2018-12-26T00:27:13.422Z,92.3
2018-12-26T00:28:25.698Z,92.1
2018-12-26T00:29:37.903Z,91.8
2018-12-26T00:30:50.019Z,92
2018-12-26T00:32:02.211Z,91.8
2018-12-26T00:33:14.554Z,91.5
2018-12-26T00:34:26.683Z,92
2018-12-26T00:35:38.921Z,91.6
2018-12-26T00:36:51.395Z,91.4
2018-12-26T00:38:03.242Z,91.2
2018-12-26T00:40:27.731Z,91.2
2018-12-26T00:41:39.831Z,91.2
2018-12-26T00:42:52.040Z,91.5
2018-12-26T00:44:04.226Z,91.2
2018-12-26T00:45:16.481Z,91.5
2018-12-26T00:46:28.543Z,91.5
2018-12-26T00:47:40.790Z,91.7
2018-12-26T00:48:52.990Z,91.9
2018-12-26T00:50:05.310Z,91.9
2018-12-26T00:51:17.450Z,92.4
2018-12-26T00:52:29.578Z,92.3
2018-12-26T00:53:41.767Z,92.4
2018-12-26T00:54:54.034Z,91.8
2018-12-26T00:56:06.168Z,91.9
2018-12-26T00:57:18.465Z,91.9
2018-12-26T00:58:30.562Z,92.4
2018-12-26T00:59:42.739Z,92.5
2018-12-26T01:00:55.188Z,92.2
2018-12-26T01:02:07.262Z,92.3
2018-12-26T01:03:19.333Z,92
2018-12-26T01:04:31.617Z,92
2018-12-26T01:05:43.655Z,92
2018-12-26T01:06:55.826Z,91.7
2018-12-26T01:08:08.154Z,91.6
2018-12-26T01:09:20.384Z,91.4
2018-12-26T01:10:32.547Z,91.3
2018-12-26T01:11:44.708Z,91.6
2018-12-26T01:12:56.808Z,91.8
2018-12-26T01:14:09.089Z,91.8
2018-12-26T01:15:21.308Z,92
2018-12-26T01:16:33.574Z,92.2
2018-12-26T01:17:45.655Z,92.6
2018-12-26T01:18:57.921Z,92.7
2018-12-26T01:20:10.049Z,92.8
2018-12-26T01:21:22.160Z,92.7
2018-12-26T01:22:34.510Z,92.8
2018-12-26T01:23:46.694Z,92.9
2018-12-26T01:24:58.904Z,92.7
2018-12-26T01:26:11.029Z,93
2018-12-26T01:27:23.139Z,93.1
2018-12-26T01:28:35.427Z,93.3
2018-12-26T01:29:47.610Z,93.4
2018-12-26T01:30:59.875Z,92.9
2018-12-26T01:32:11.971Z,92.9
2018-12-26T01:33:24.194Z,92.4
2018-12-26T01:34:36.366Z,91.9
2018-12-26T01:35:48.605Z,91.8
2018-12-26T01:37:00.851Z,92
2018-12-26T01:38:13.042Z,91.7
2018-12-26T01:39:25.147Z,91.6
2018-12-26T01:40:37.338Z,91.9
2018-12-26T01:41:49.532Z,91.8
2018-12-26T01:43:01.823Z,91.4
2018-12-26T01:44:13.920Z,91.4
2018-12-26T01:45:26.136Z,91.4
2018-12-26T01:46:41.479Z,91.7
2018-12-26T01:47:50.534Z,91.7
2018-12-26T01:49:02.718Z,92.3
2018-12-26T01:50:14.810Z,92.2
2018-12-26T01:51:27.043Z,92.1
2018-12-26T01:52:39.290Z,92.1
2018-12-26T01:53:51.467Z,92.4
2018-12-26T01:55:03.735Z,92.6
2018-12-26T01:56:15.883Z,93
2018-12-26T01:57:28.054Z,93
2018-12-26T01:58:40.382Z,92.7
2018-12-26T01:59:52.672Z,92.8
2018-12-26T02:01:04.651Z,92.6
2018-12-26T02:02:16.938Z,92.8
2018-12-26T02:03:28.949Z,92.7
2018-12-26T02:04:41.139Z,92.6
2018-12-26T02:05:53.425Z,93
2018-12-26T02:07:05.585Z,93.2
2018-12-26T02:08:17.725Z,92.7
2018-12-26T02:09:30.087Z,92.6
2018-12-26T02:10:42.163Z,92.7
2018-12-26T02:11:54.467Z,92.9
2018-12-26T02:13:06.598Z,92.9
2018-12-26T02:14:18.877Z,92.9
2018-12-26T02:15:30.966Z,93.1
2018-12-26T02:16:43.265Z,92.9
2018-12-26T02:17:55.425Z,92.7
2018-12-26T02:19:07.572Z,92.7
2018-12-26T02:20:19.823Z,92.9
2018-12-26T02:21:32.011Z,92.7
2018-12-26T02:22:44.062Z,92.6
2018-12-26T02:23:56.405Z,92.7
2018-12-26T02:25:08.540Z,92.8
2018-12-26T02:26:20.732Z,92.6
2018-12-26T02:27:32.831Z,92.5
2018-12-26T02:28:45.159Z,92.6
2018-12-26T02:29:57.318Z,92.9
2018-12-26T02:31:09.497Z,92.8
2018-12-26T02:32:21.608Z,92.8
2018-12-26T02:33:33.899Z,93
2018-12-26T02:34:46.026Z,92.7
2018-12-26T02:35:58.274Z,92.3
2018-12-26T02:37:10.477Z,93
2018-12-26T02:38:22.760Z,93.3
2018-12-26T02:39:34.819Z,93
2018-12-26T02:40:47.155Z,93
2018-12-26T02:41:59.194Z,93
2018-12-26T02:43:11.506Z,92.9
2018-12-26T02:44:23.647Z,93.3
2018-12-26T02:45:35.905Z,93.5
2018-12-26T02:46:48.014Z,93.3
2018-12-26T02:48:00.227Z,93.4
2018-12-26T02:49:12.503Z,93.4
2018-12-26T02:50:24.664Z,93.3
2018-12-26T02:51:36.759Z,93.9
2018-12-26T02:52:49.086Z,94.1
2018-12-26T02:54:01.142Z,93.9
2018-12-26T02:55:13.393Z,94
2018-12-26T02:56:25.619Z,93.8
2018-12-26T02:57:37.770Z,93.4
2018-12-26T02:58:49.973Z,93.5
2018-12-26T03:00:02.274Z,93.5
2018-12-26T03:01:14.436Z,94.3
2018-12-26T03:02:26.548Z,94.3
2018-12-26T03:03:38.723Z,94.1
2018-12-26T03:04:50.939Z,94
2018-12-26T03:06:03.154Z,93.8
2018-12-26T03:07:15.402Z,93.8
2018-12-26T03:08:27.434Z,94.1
2018-12-26T03:09:39.778Z,93.8
2018-12-26T03:10:51.827Z,93.3
2018-12-26T03:12:04.101Z,93.5
2018-12-26T03:13:16.420Z,93.2
2018-12-26T03:14:28.489Z,92.8
2018-12-26T03:15:40.599Z,93.7
2018-12-26T03:16:53.011Z,92.9
2018-12-26T03:18:05.087Z,92.5
2018-12-26T03:19:17.368Z,92.4
2018-12-26T03:20:29.401Z,92.9
2018-12-26T03:21:41.689Z,92.9
2018-12-26T03:22:53.848Z,92.6
2018-12-26T03:24:06.051Z,93
2018-12-26T03:25:18.260Z,93.4
2018-12-26T03:26:30.474Z,93.5
2018-12-26T03:27:42.603Z,93.5
2018-12-26T03:28:54.951Z,93.1
2018-12-26T03:30:07.005Z,93.2
2018-12-26T03:31:19.313Z,93.8
2018-12-26T03:32:31.318Z,93.8
2018-12-26T03:33:43.671Z,93.9
2018-12-26T03:34:55.702Z,94.3
2018-12-26T03:36:07.993Z,94.2
2018-12-26T03:37:20.192Z,93.7
2018-12-26T03:38:32.467Z,93.6
2018-12-26T03:39:44.473Z,93.5
2018-12-26T03:40:56.847Z,93.3
2018-12-26T03:42:08.860Z,93.7
2018-12-26T03:43:24.431Z,94
2018-12-26T03:44:33.344Z,94.2
2018-12-26T03:45:45.544Z,94.1
2018-12-26T03:46:57.759Z,94.2
2018-12-26T03:48:09.971Z,94
2018-12-26T03:49:22.188Z,94.3
2018-12-26T03:50:34.412Z,94
2018-12-26T03:51:46.455Z,93.8
2018-12-26T03:52:58.706Z,94
2018-12-26T03:54:10.861Z,94
2018-12-26T03:55:23.160Z,94.2
2018-12-26T03:56:35.259Z,94.4
2018-12-26T03:57:47.506Z,94.5
2018-12-26T03:58:59.576Z,94.3
2018-12-26T04:00:11.946Z,94.3
2018-12-26T04:01:24.166Z,94.3
2018-12-26T04:02:36.322Z,94.3
2018-12-26T04:03:48.422Z,94.6
2018-12-26T04:05:00.702Z,94.9
2018-12-26T04:06:12.755Z,95.2
2018-12-26T04:07:25.112Z,95.2
2018-12-26T04:08:37.157Z,95.2
2018-12-26T04:09:49.504Z,95
2018-12-26T04:11:01.528Z,94.8
2018-12-26T04:12:13.802Z,94.7
2018-12-26T04:13:25.917Z,94.8
2018-12-26T04:14:38.283Z,94.7
2018-12-26T04:15:50.299Z,94.7
2018-12-26T04:17:02.600Z,94.7
2018-12-26T04:18:14.716Z,94.8
2018-12-26T04:19:27.047Z,94.6
2018-12-26T04:20:39.154Z,94.4
2018-12-26T04:21:51.425Z,94.3
2018-12-26T04:23:03.529Z,94.3
2018-12-26T04:24:16.264Z,94.3
2018-12-26T04:25:27.941Z,94.2
2018-12-26T04:26:40.138Z,94.3
2018-12-26T04:27:52.235Z,94.6
2018-12-26T04:29:04.533Z,94.6
2018-12-26T04:30:16.708Z,94.5
2018-12-26T04:31:28.989Z,94.4
2018-12-26T04:32:41.097Z,94.3
2018-12-26T04:33:53.286Z,94.3
2018-12-26T04:35:05.484Z,94.3
2018-12-26T04:36:17.688Z,94.2
2018-12-26T04:37:29.957Z,94.3
2018-12-26T04:38:42.143Z,94.3
2018-12-26T04:39:54.426Z,94.5
2018-12-26T04:41:06.504Z,94.6
2018-12-26T04:42:18.592Z,94.6
2018-12-26T04:43:30.932Z,94.5
2018-12-26T04:44:42.951Z,94.7
2018-12-26T04:45:55.356Z,94.7
2018-12-26T04:47:07.408Z,94.3
2018-12-26T04:48:19.664Z,94.5
2018-12-26T04:49:31.828Z,94.8
2018-12-26T04:50:44.028Z,94.9
2018-12-26T04:51:56.166Z,94.8
2018-12-26T04:53:08.487Z,94.8
2018-12-26T04:54:20.505Z,94.6
2018-12-26T04:55:32.837Z,94.7
2018-12-26T04:56:45.004Z,94.6
2018-12-26T04:57:57.265Z,94.5
2018-12-26T04:59:09.325Z,93.9
2018-12-26T05:00:21.572Z,94
2018-12-26T05:01:33.865Z,94.4
2018-12-26T05:02:46.034Z,94.5
2018-12-26T05:03:58.202Z,94.4
2018-12-26T05:05:10.353Z,94.2
2018-12-26T05:06:22.538Z,94.2
2018-12-26T05:07:34.708Z,94.5
2018-12-26T05:08:46.833Z,94.2
2018-12-26T05:09:59.196Z,94.2
2018-12-26T05:11:11.231Z,94
2018-12-26T05:12:23.515Z,94
2018-12-26T05:13:35.710Z,94
2018-12-26T05:14:47.904Z,93.7
2018-12-26T05:16:00.072Z,93.7
2018-12-26T05:17:12.268Z,93.9
2018-12-26T05:18:24.470Z,94.2
2018-12-26T05:19:36.751Z,94.2
2018-12-26T05:20:48.847Z,94.4
2018-12-26T05:22:00.965Z,94.4
2018-12-26T05:23:13.182Z,94.4
2018-12-26T05:24:25.545Z,94.4
2018-12-26T05:25:37.773Z,94.5
2018-12-26T05:26:49.832Z,94.2
2018-12-26T05:28:02.006Z,94.2
2018-12-26T05:29:14.140Z,93.8
2018-12-26T05:30:26.352Z,93.9
2018-12-26T05:31:38.617Z,94.2
2018-12-26T05:32:50.816Z,94.2
2018-12-26T05:34:03.069Z,93.9
2018-12-26T05:35:15.195Z,94
2018-12-26T05:36:27.322Z,94.2
2018-12-26T05:37:39.603Z,94.4
2018-12-26T05:38:51.802Z,94.6
2018-12-26T05:40:03.899Z,94.5
2018-12-26T05:41:16.359Z,94.5
2018-12-26T05:42:28.324Z,94.7
2018-12-26T05:43:40.551Z,94.5
2018-12-26T05:44:56.296Z,94.8
2018-12-26T05:46:04.968Z,94.8
2018-12-26T05:47:17.142Z,94.9
2018-12-26T05:48:29.360Z,94.7
2018-12-26T05:49:41.558Z,94.6
2018-12-26T05:50:53.744Z,95
2018-12-26T05:52:05.951Z,95.5
2018-12-26T05:53:18.190Z,95.5
2018-12-26T05:54:30.322Z,95.5
2018-12-26T05:55:42.603Z,95.7
2018-12-26T05:56:54.770Z,95.7
2018-12-26T05:58:06.905Z,95.5
2018-12-26T05:59:19.112Z,95.5
2018-12-26T06:00:31.437Z,95.5
2018-12-26T06:01:43.523Z,95.5
2018-12-26T06:02:55.788Z,95.7
2018-12-26T06:04:07.986Z,95.5
2018-12-26T06:05:20.070Z,95.5
2018-12-26T06:06:32.200Z,95.5
2018-12-26T06:07:44.564Z,95.3
2018-12-26T06:08:56.590Z,95.2
2018-12-26T06:10:08.849Z,95.1
2018-12-26T06:11:21.054Z,94.9
2018-12-26T06:12:33.255Z,95.2
2018-12-26T06:13:45.464Z,95
2018-12-26T06:14:57.730Z,95.1
2018-12-26T06:16:09.857Z,95.1
2018-12-26T06:17:22.204Z,95.2
2018-12-26T06:18:34.166Z,95
2018-12-26T06:19:46.446Z,94.8
2018-12-26T06:20:58.621Z,94.7
2018-12-26T06:22:10.815Z,94.8
2018-12-26T06:23:22.935Z,94.9
2018-12-26T06:24:35.304Z,94.8
2018-12-26T06:25:47.621Z,94.6
2018-12-26T06:26:59.522Z,95
2018-12-26T06:28:11.723Z,95.1
2018-12-26T06:29:24.043Z,95.2
2018-12-26T06:30:36.116Z,95.3
2018-12-26T06:31:48.397Z,95.2
2018-12-26T06:33:00.518Z,95.2
2018-12-26T06:34:12.721Z,95.1
2018-12-26T06:35:24.897Z,95.3
2018-12-26T06:36:37.248Z,95.5
2018-12-26T06:37:49.374Z,95.6
2018-12-26T06:39:01.678Z,95.5
2018-12-26T06:40:13.677Z,95.4
2018-12-26T06:41:25.877Z,95.1
2018-12-26T06:42:38.130Z,95.2
2018-12-26T06:43:50.361Z,95.5
2018-12-26T06:45:02.497Z,95.5
2018-12-26T06:46:14.733Z,95.4
2018-12-26T06:47:26.855Z,95.5
2018-12-26T06:48:39.118Z,95.5
2018-12-26T06:49:51.424Z,95.6
2018-12-26T06:51:03.586Z,95.6
2018-12-26T06:52:15.638Z,95.7
2018-12-26T06:53:27.897Z,95.8
2018-12-26T06:54:40.566Z,95.9
2018-12-26T06:55:52.305Z,95.8
2018-12-26T06:57:04.489Z,95.9
2018-12-26T06:58:16.771Z,95.9
2018-12-26T06:59:28.807Z,95.9
2018-12-26T07:00:41.096Z,95.9
2018-12-26T07:01:53.369Z,96
2018-12-26T07:03:05.408Z,96
2018-12-26T07:04:17.689Z,96.3
2018-12-26T07:05:29.878Z,96.2
2018-12-26T07:06:42.101Z,96.1
2018-12-26T07:07:54.276Z,96.2
2018-12-26T07:09:06.452Z,96.3
2018-12-26T07:10:18.655Z,96.3
2018-12-26T07:11:30.834Z,96.5
2018-12-26T07:12:43.059Z,96.3
2018-12-26T07:13:55.246Z,96.3
2018-12-26T07:15:07.548Z,96.4
2018-12-26T07:16:19.581Z,96.4
2018-12-26T07:17:31.745Z,96.4
2018-12-26T07:18:44.788Z,96.4
2018-12-26T07:19:56.262Z,96.3
2018-12-26T07:21:08.404Z,96.3
2018-12-26T07:22:20.522Z,96.3
2018-12-26T07:23:32.718Z,96.2
2018-12-26T07:24:44.931Z,96.2
2018-12-26T07:25:57.287Z,96.3
2018-12-26T07:27:09.396Z,96.4
2018-12-26T07:28:21.502Z,96.4
2018-12-26T07:29:33.784Z,96.4
2018-12-26T07:30:45.911Z,96.4
2018-12-26T07:31:58.101Z,96.4
2018-12-26T07:33:10.366Z,96.4
2018-12-26T07:34:22.611Z,96.5
2018-12-26T07:35:34.673Z,96.6
2018-12-26T07:36:47.029Z,96.5
2018-12-26T07:37:59.169Z,96.6
2018-12-26T07:39:11.268Z,96.7
2018-12-26T07:40:23.539Z,96.6
2018-12-26T07:41:35.785Z,96.6
2018-12-26T07:42:47.940Z,96.5
2018-12-26T07:44:00.044Z,96.5
2018-12-26T07:45:12.244Z,96.5
2018-12-26T07:46:24.536Z,96.5
2018-12-26T07:47:36.638Z,96.3
2018-12-26T07:48:49.005Z,96.4
2018-12-26T07:50:01.299Z,96.4
2018-12-26T07:51:13.323Z,96.3
2018-12-26T07:52:25.502Z,96.2
2018-12-26T07:53:37.622Z,96.1
2018-12-26T07:54:49.882Z,96
2018-12-26T07:56:02.104Z,95.8
2018-12-26T07:57:14.273Z,95.6
2018-12-26T07:58:26.618Z,95.5
2018-12-26T07:59:38.669Z,95.5
2018-12-26T08:00:50.882Z,95.5
2018-12-26T08:02:03.166Z,95.4
2018-12-26T08:03:15.345Z,95.3
2018-12-26T08:04:27.373Z,95.1
2018-12-26T08:05:39.848Z,94.9
2018-12-26T08:06:51.852Z,94.5
2018-12-26T08:08:03.969Z,94.1
2018-12-26T08:09:16.210Z,93.6
2018-12-26T08:10:28.444Z,93
2018-12-26T08:11:40.547Z,92.6
2018-12-26T08:12:52.751Z,92.2
2018-12-26T08:14:05.105Z,92
2018-12-26T08:15:17.278Z,91.7
2018-12-26T08:16:29.434Z,91.7
2018-12-26T08:17:41.697Z,91.6
2018-12-26T08:18:53.851Z,91.4
2018-12-26T08:20:06.107Z,91.5
2018-12-26T08:21:18.113Z,91.9
2018-12-26T08:22:30.399Z,92.4
2018-12-26T08:23:42.596Z,92.4
2018-12-26T08:24:54.786Z,92.4
2018-12-26T08:26:07.372Z,92.2
2018-12-26T08:27:19.201Z,92.2
2018-12-26T08:28:31.353Z,92.6
2018-12-26T08:29:43.763Z,92.6
2018-12-26T08:30:55.849Z,92
2018-12-26T08:32:07.964Z,91.3
2018-12-26T08:33:20.180Z,90.7
2018-12-26T08:34:32.463Z,90.5
2018-12-26T08:35:44.539Z,90
2018-12-26T08:36:56.838Z,89.7
2018-12-26T08:38:08.959Z,89.4
2018-12-26T08:39:21.178Z,89
2018-12-26T08:40:33.411Z,89.1
2018-12-26T08:41:45.565Z,88.9
2018-12-26T08:42:57.702Z,88.5
2018-12-26T08:44:09.928Z,88.1
2018-12-26T08:45:22.022Z,88.2
2018-12-26T08:46:34.390Z,87.9
2018-12-26T08:47:46.510Z,87.2
2018-12-26T08:48:58.774Z,87.3
2018-12-26T08:50:10.900Z,86.7
2018-12-26T08:51:22.996Z,86.7
2018-12-26T08:52:35.195Z,86.2
2018-12-26T08:53:47.483Z,86.5
2018-12-26T08:54:59.777Z,86.5
2018-12-26T08:57:23.983Z,86.5
2018-12-26T08:58:36.354Z,85.6
2018-12-26T08:59:48.495Z,84.9
2018-12-26T09:01:00.770Z,85
2018-12-26T09:02:12.874Z,85.3
2018-12-26T09:03:25.134Z,85.1
2018-12-26T09:04:37.300Z,84.8
2018-12-26T09:05:49.454Z,84.5
2018-12-26T09:07:01.612Z,84.2
2018-12-26T09:08:13.802Z,83.9
2018-12-26T09:09:26.030Z,83.7
2018-12-26T09:10:38.226Z,83.5
2018-12-26T09:11:50.325Z,83.7
2018-12-26T09:13:02.623Z,84.5
2018-12-26T09:14:14.908Z,84.3
2018-12-26T09:15:27.113Z,83.9
2018-12-26T09:16:39.112Z,83.8
2018-12-26T09:17:51.394Z,83.6
2018-12-26T09:19:03.582Z,83.4
2018-12-26T09:20:15.859Z,82.8
2018-12-26T09:21:27.962Z,83
2018-12-26T09:22:40.286Z,83.1
2018-12-26T09:23:52.308Z,82.7
2018-12-26T09:25:04.569Z,82.9
2018-12-26T09:26:16.763Z,82.4
2018-12-26T09:27:28.957Z,83.4
2018-12-26T09:28:41.221Z,83.8
2018-12-26T09:29:53.472Z,83.3
2018-12-26T09:31:05.570Z,83.2
2018-12-26T09:32:17.735Z,83.5
2018-12-26T09:33:29.838Z,83.1
2018-12-26T09:34:42.139Z,83
2018-12-26T09:35:54.310Z,83.4
2018-12-26T09:37:06.572Z,83.5
2018-12-26T09:38:18.721Z,82.7
2018-12-26T09:39:30.994Z,83
2018-12-26T09:40:43.016Z,81.9
2018-12-26T09:41:55.209Z,82
2018-12-26T09:43:07.577Z,81.6
2018-12-26T09:44:19.696Z,81.1
2018-12-26T09:45:31.801Z,81.4
2018-12-26T09:46:44.197Z,80.5
2018-12-26T09:47:56.313Z,80.7
2018-12-26T09:49:08.542Z,79.5
2018-12-26T09:50:20.676Z,80.3
2018-12-26T09:51:32.918Z,80.6
2018-12-26T09:52:44.978Z,80.5
2018-12-26T09:53:57.263Z,79.8
2018-12-26T09:55:09.359Z,80.6
2018-12-26T09:56:21.656Z,80.4
2018-12-26T09:57:33.829Z,79.9
2018-12-26T09:58:46.135Z,80.2
2018-12-26T09:59:58.237Z,79.8
2018-12-26T10:01:10.518Z,80.8
2018-12-26T10:02:22.682Z,80.5
2018-12-26T10:03:34.762Z,80.6
2018-12-26T10:04:47.001Z,80.1
2018-12-26T10:05:59.210Z,79.8
2018-12-26T10:07:11.499Z,80.3
2018-12-26T10:08:23.610Z,79.9
2018-12-26T10:09:35.777Z,79.7
2018-12-26T10:10:47.915Z,80.1
2018-12-26T10:12:00.123Z,80.3
2018-12-26T10:13:12.389Z,80.1
2018-12-26T10:14:24.580Z,80
2018-12-26T10:15:36.884Z,79.8
2018-12-26T10:16:49.081Z,79.6
2018-12-26T10:18:01.084Z,79.7
2018-12-26T10:19:13.409Z,79.4
2018-12-26T10:20:25.556Z,79.1
2018-12-26T10:21:37.671Z,79
2018-12-26T10:22:49.954Z,79.1
2018-12-26T10:24:02.164Z,79.2
2018-12-26T10:25:14.420Z,79.1
2018-12-26T10:26:26.656Z,79.7
2018-12-26T10:27:38.721Z,78.7
2018-12-26T10:28:50.969Z,78.8
2018-12-26T10:30:03.073Z,78
2018-12-26T10:31:15.374Z,77.6
2018-12-26T10:32:27.427Z,77.5
2018-12-26T10:33:39.760Z,78.1
2018-12-26T10:34:51.916Z,77.5
2018-12-26T10:36:04.018Z,77.7
2018-12-26T10:37:16.385Z,77.5
2018-12-26T10:38:28.579Z,78.4
2018-12-26T10:39:40.678Z,78.4
2018-12-26T10:40:52.866Z,78.6
2018-12-26T10:42:05.151Z,77.5
2018-12-26T10:43:17.273Z,77.4
2018-12-26T10:44:29.474Z,77.3
2018-12-26T10:45:41.587Z,77.8
2018-12-26T10:46:53.776Z,77.3
2018-12-26T10:48:05.962Z,77.2
2018-12-26T10:49:18.225Z,76.5
2018-12-26T10:50:30.503Z,77.4
2018-12-26T10:51:42.709Z,77
2018-12-26T10:52:54.821Z,77
2018-12-26T10:54:06.947Z,76.6
2018-12-26T10:55:19.141Z,76.9
2018-12-26T10:56:31.416Z,76.6
2018-12-26T10:57:43.856Z,76.5
2018-12-26T10:58:55.897Z,76.3
2018-12-26T11:00:07.951Z,76.1
2018-12-26T11:01:20.212Z,77.2
2018-12-26T11:02:32.510Z,75.6
2018-12-26T11:03:44.609Z,76.4
2018-12-26T11:04:56.847Z,75.5
2018-12-26T11:06:09.005Z,75.6
2018-12-26T11:07:21.251Z,75.6
2018-12-26T11:08:33.366Z,75.7
2018-12-26T11:09:45.494Z,74.9
2018-12-26T11:10:57.857Z,74.8
2018-12-26T11:12:09.880Z,75.5
2018-12-26T11:13:22.123Z,74.6
2018-12-26T11:14:34.366Z,74.5
2018-12-26T11:15:46.539Z,75.5
2018-12-26T11:16:58.741Z,76
2018-12-26T11:18:11.025Z,75.9
2018-12-26T11:19:23.231Z,75.5
2018-12-26T11:20:35.342Z,74.9
2018-12-26T11:21:47.563Z,74.6
2018-12-26T11:22:59.674Z,73.7
2018-12-26T11:24:11.911Z,74.5
2018-12-26T11:25:24.201Z,74.7
2018-12-26T11:26:36.394Z,74
2018-12-26T11:27:48.627Z,74.3
2018-12-26T11:29:00.686Z,73.8
2018-12-26T11:30:12.836Z,73.2
2018-12-26T11:31:25.132Z,72.8
2018-12-26T11:32:37.367Z,73.3
2018-12-26T11:33:49.391Z,73.5
2018-12-26T11:35:01.671Z,73.7
2018-12-26T11:36:13.857Z,73.6
2018-12-26T11:37:26.071Z,74.2
2018-12-26T11:38:38.331Z,73.5
2018-12-26T11:39:50.542Z,73.6
2018-12-26T11:41:02.575Z,72.6
2018-12-26T11:42:14.958Z,72.6
2018-12-26T11:43:27.148Z,73.4
2018-12-26T11:44:39.249Z,73.4
2018-12-26T11:45:51.358Z,74.4
2018-12-26T11:47:03.646Z,74.9
2018-12-26T11:48:15.810Z,74.5
2018-12-26T11:49:28.125Z,73.7
2018-12-26T11:50:40.337Z,76.6
2018-12-26T11:51:52.350Z,76.6
2018-12-26T11:53:04.528Z,76.4
2018-12-26T11:54:16.858Z,77.4
2018-12-26T11:55:28.997Z,76
2018-12-26T11:56:41.213Z,77
2018-12-26T11:57:53.392Z,76.2
2018-12-26T11:59:05.595Z,78
2018-12-26T12:00:17.718Z,78
2018-12-26T12:01:30.101Z,77.5
2018-12-26T12:02:42.269Z,76.3
2018-12-26T12:03:54.436Z,77.8
2018-12-26T12:05:06.478Z,78.4
2018-12-26T12:06:18.884Z,78.6
2018-12-26T12:07:30.943Z,78
2018-12-26T12:08:43.256Z,77.6
2018-12-26T12:09:55.280Z,78.5
2018-12-26T12:11:07.654Z,78
2018-12-26T12:12:19.737Z,78.5
2018-12-26T12:13:31.847Z,78.3
2018-12-26T12:14:44.142Z,78
2018-12-26T12:15:56.396Z,77.9
2018-12-26T12:17:08.440Z,76.4
2018-12-26T12:18:20.747Z,75.4
2018-12-26T12:19:32.923Z,78
2018-12-26T12:20:45.196Z,79.1
2018-12-26T12:21:57.224Z,78.2
2018-12-26T12:23:09.608Z,78.1
2018-12-26T12:24:22.478Z,78.3
2018-12-26T12:25:33.988Z,77.5
2018-12-26T12:26:46.299Z,76.5
2018-12-26T12:27:58.299Z,77
2018-12-26T12:29:10.403Z,77.8
2018-12-26T12:30:22.782Z,78.4
2018-12-26T12:31:34.790Z,78.9
2018-12-26T12:32:47.041Z,78.1
2018-12-26T12:33:59.245Z,79.3
2018-12-26T12:35:11.532Z,78.6
2018-12-26T12:36:23.564Z,78.1
2018-12-26T12:37:35.861Z,79.4
2018-12-26T12:38:47.959Z,78.6
2018-12-26T12:40:00.256Z,77.5
2018-12-26T12:41:12.447Z,79.1
2018-12-26T12:42:24.730Z,78
2018-12-26T12:43:36.737Z,79.5
2018-12-26T12:44:49.035Z,77
2018-12-26T12:46:01.303Z,78.8
2018-12-26T12:47:13.521Z,78.6
2018-12-26T12:48:25.620Z,78
2018-12-26T12:49:37.927Z,78.5
2018-12-26T12:50:49.920Z,77.9
2018-12-26T12:52:02.280Z,78.3
2018-12-26T12:53:14.375Z,79.2
2018-12-26T12:54:26.598Z,79.5
2018-12-26T12:55:38.700Z,78.3
2018-12-26T12:56:50.993Z,77.9
2018-12-26T12:58:03.108Z,79.1
2018-12-26T12:59:15.383Z,78.8
2018-12-26T13:00:27.659Z,78
2018-12-26T13:01:39.822Z,77.3
2018-12-26T13:02:51.882Z,77.4
2018-12-26T13:04:04.153Z,77.8
2018-12-26T13:05:16.536Z,77.9
2018-12-26T13:06:28.646Z,77.5
2018-12-26T13:07:40.650Z,75.8
2018-12-26T13:08:52.943Z,77.7
2018-12-26T13:10:05.046Z,77.7
2018-12-26T13:11:17.316Z,77.7
2018-12-26T13:12:29.659Z,78.1
2018-12-26T13:13:41.771Z,77.9
2018-12-26T13:14:53.874Z,78.3
2018-12-26T13:16:06.201Z,78
2018-12-26T13:17:18.301Z,78.9
2018-12-26T13:18:30.589Z,78.6
2018-12-26T13:19:42.698Z,78.2
2018-12-26T13:20:54.952Z,78.5
2018-12-26T13:22:07.127Z,78.6
2018-12-26T13:23:19.262Z,78.8
2018-12-26T13:24:31.461Z,79
2018-12-26T13:25:43.761Z,79.4
2018-12-26T13:26:55.873Z,78.8
2018-12-26T13:28:08.107Z,78.6
2018-12-26T13:29:20.170Z,78.4
2018-12-26T13:30:32.637Z,77.9
2018-12-26T13:31:44.566Z,78.6
2018-12-26T13:32:56.913Z,79.8
2018-12-26T13:34:09.038Z,79.2
2018-12-26T13:35:21.331Z,79.1
2018-12-26T13:36:33.409Z,78
2018-12-26T13:37:45.642Z,78.6
2018-12-26T13:38:57.955Z,77.1
2018-12-26T13:40:11.013Z,78.3
2018-12-26T13:41:22.197Z,77.7
2018-12-26T13:42:34.483Z,77.6
2018-12-26T13:43:46.517Z,78.8
2018-12-26T13:44:58.886Z,79.5
2018-12-26T13:46:10.988Z,79.1
2018-12-26T13:47:23.300Z,77.8
2018-12-26T13:48:35.407Z,78
2018-12-26T13:49:47.670Z,78.6
2018-12-26T13:50:59.862Z,78.3
2018-12-26T13:52:11.987Z,77.5
2018-12-26T13:53:24.106Z,77.9
2018-12-26T13:54:40.189Z,78
2018-12-26T13:55:49.667Z,76.7
2018-12-26T13:57:00.760Z,78
2018-12-26T13:58:12.863Z,78.2
2018-12-26T13:59:25.252Z,77.4
2018-12-26T14:00:37.266Z,77.7
2018-12-26T14:01:49.535Z,77.5
2018-12-26T14:03:01.810Z,77.3
2018-12-26T14:04:13.890Z,77.1
2018-12-26T14:05:26.072Z,77.6
2018-12-26T14:06:38.344Z,77.5
2018-12-26T14:07:50.435Z,77.4
2018-12-26T14:09:02.788Z,77.7
2018-12-26T14:10:14.881Z,77.2
2018-12-26T14:11:27.106Z,77.6
2018-12-26T14:12:39.254Z,78.1
2018-12-26T14:13:51.494Z,78.3
2018-12-26T14:15:03.697Z,77.8
2018-12-26T14:16:15.904Z,77.8
2018-12-26T14:17:28.078Z,77.7
2018-12-26T14:18:41.260Z,78.3
2018-12-26T14:19:52.383Z,76.3
2018-12-26T14:21:04.753Z,78.1
2018-12-26T14:22:16.878Z,76.8
2018-12-26T14:23:28.965Z,78.5
2018-12-26T14:24:41.268Z,76.7
2018-12-26T14:25:53.548Z,77.1
2018-12-26T14:27:05.630Z,77.3
2018-12-26T14:28:17.862Z,78.3
2018-12-26T14:29:30.045Z,77.5
2018-12-26T14:30:42.155Z,78.3
2018-12-26T14:31:54.338Z,78.4
2018-12-26T14:33:06.632Z,78.3
2018-12-26T14:34:18.728Z,78.1
2018-12-26T14:35:31.061Z,78.4
2018-12-26T14:36:43.192Z,77.4
2018-12-26T14:37:55.391Z,78.1
2018-12-26T14:39:07.608Z,77.9
2018-12-26T14:40:19.833Z,78.4
2018-12-26T14:41:31.976Z,78.5
2018-12-26T14:42:44.201Z,78.2
2018-12-26T14:43:56.389Z,78
2018-12-26T14:45:08.559Z,77.2
2018-12-26T14:46:20.687Z,78.4
2018-12-26T14:47:32.966Z,77.4
2018-12-26T14:48:45.161Z,77.4
2018-12-26T14:49:57.378Z,76.9
2018-12-26T14:51:09.685Z,76.9
2018-12-26T14:52:21.667Z,79.2
2018-12-26T14:53:33.863Z,78.3
2018-12-26T14:54:46.250Z,77.3
2018-12-26T14:55:58.264Z,78.3
2018-12-26T14:57:11.278Z,79.7
2018-12-26T14:58:22.713Z,79
2018-12-26T14:59:34.826Z,78
2018-12-26T15:00:47.019Z,77.6
2018-12-26T15:01:59.478Z,77.4
2018-12-26T15:03:11.509Z,78.5
2018-12-26T15:04:23.765Z,78.5
2018-12-26T15:05:35.794Z,77.8
2018-12-26T15:06:47.993Z,79.6
2018-12-26T15:08:00.304Z,79.3
2018-12-26T15:09:12.475Z,78.8
2018-12-26T15:10:24.658Z,77.9
2018-12-26T15:11:36.963Z,77.6
2018-12-26T15:12:49.032Z,77.4
2018-12-26T15:14:01.330Z,79.1
2018-12-26T15:15:13.452Z,78.6
2018-12-26T15:16:25.636Z,79.5
2018-12-26T15:17:37.803Z,79.1
2018-12-26T15:18:49.929Z,77.3
2018-12-26T15:20:02.205Z,77.6
2018-12-26T15:21:14.316Z,77.5
2018-12-26T15:22:26.579Z,78.5
2018-12-26T15:23:38.878Z,78.8
2018-12-26T15:24:50.925Z,76
2018-12-26T15:26:03.184Z,77.4
2018-12-26T15:27:15.389Z,78.5
2018-12-26T15:28:27.496Z,79.1
2018-12-26T15:29:39.898Z,77.8
2018-12-26T15:30:52.830Z,77.6
2018-12-26T15:32:04.135Z,78.6
2018-12-26T15:33:16.365Z,78.6
2018-12-26T15:34:28.537Z,79.1
2018-12-26T15:35:40.645Z,78.6
2018-12-26T15:36:52.920Z,79.2
2018-12-26T15:38:05.094Z,79
2018-12-26T15:39:17.349Z,78.5
2018-12-26T15:40:29.486Z,78.6
2018-12-26T15:41:41.614Z,78.2
2018-12-26T15:42:53.813Z,78.7
2018-12-26T15:44:06.104Z,79.4
2018-12-26T15:45:18.286Z,78.8
2018-12-26T15:46:30.391Z,79.1
2018-12-26T15:47:42.688Z,78.2
2018-12-26T15:48:54.777Z,79
2018-12-26T15:50:07.059Z,78.7
2018-12-26T15:51:19.365Z,78.2
2018-12-26T15:52:31.448Z,78.9
2018-12-26T15:53:43.558Z,79.4
2018-12-26T15:54:55.917Z,81.5
2018-12-26T15:56:07.947Z,79.7
2018-12-26T15:57:20.308Z,80.8
2018-12-26T15:58:32.445Z,80.7
2018-12-26T15:59:44.614Z,80.9
2018-12-26T16:00:56.804Z,80.7
2018-12-26T16:02:09.082Z,80.4
2018-12-26T16:03:21.296Z,81.2
2018-12-26T16:04:33.395Z,81.1
2018-12-26T16:05:45.606Z,80.4
2018-12-26T16:06:57.784Z,81.3
2018-12-26T16:08:09.968Z,80.8
2018-12-26T16:09:22.244Z,79.1